createdAt,value
2018-03-15T00:00:58.061Z,4.04
2018-03-15T00:01:58.031Z,4.06
2018-03-15T00:02:58.004Z,4.08
2018-03-15T00:03:58.146Z,4.05
2018-03-15T00:04:58.000Z,4.09
2018-03-15T00:05:58.000Z,4.11
2018-03-15T00:06:58.007Z,4.05
2018-03-15T00:07:57.989Z,4.05
2018-03-15T00:08:57.985Z,4.09
2018-03-15T00:09:57.992Z,4.05
2018-03-15T00:10:57.993Z,4.11
2018-03-15T00:11:57.986Z,4.08
2018-03-15T00:12:57.994Z,4.12
2018-03-15T00:13:57.977Z,4.08
2018-03-15T00:14:57.979Z,4.05
2018-03-15T00:15:57.991Z,3.98
2018-03-15T00:16:58.044Z,4.05
2018-03-15T00:17:57.990Z,4.06
2018-03-15T00:18:58.011Z,4.05
2018-03-15T00:19:57.962Z,4.06
2018-03-15T00:20:57.961Z,3.93
2018-03-15T00:21:57.966Z,3.98
2018-03-15T00:22:57.953Z,3.93
2018-03-15T00:23:57.963Z,4.04
2018-03-15T00:24:57.957Z,4.04
2018-03-15T00:25:57.949Z,3.96
2018-03-15T00:26:58.003Z,3.94
2018-03-15T00:27:57.963Z,3.91
2018-03-15T00:28:57.981Z,3.96
2018-03-15T00:29:57.928Z,3.94
2018-03-15T00:30:58.001Z,3.88
2018-03-15T00:31:57.935Z,3.88
2018-03-15T00:32:57.947Z,3.90
2018-03-15T00:33:57.940Z,3.88
2018-03-15T00:34:57.957Z,3.88
2018-03-15T00:35:57.942Z,3.91
2018-03-15T00:36:57.929Z,3.94
2018-03-15T00:37:57.913Z,3.88
2018-03-15T00:38:57.928Z,3.98
2018-03-15T00:39:57.922Z,3.98
2018-03-15T00:40:57.907Z,3.91
2018-03-15T00:41:57.929Z,3.96
2018-03-15T00:42:57.902Z,3.94
2018-03-15T00:43:57.949Z,3.84
2018-03-15T00:44:57.911Z,3.87
2018-03-15T00:45:57.906Z,3.88
2018-03-15T00:46:57.899Z,3.93
2018-03-15T00:47:57.944Z,3.86
2018-03-15T00:48:57.912Z,3.87
2018-03-15T00:49:57.905Z,3.79
2018-03-15T00:50:57.894Z,3.88
2018-03-15T00:51:57.898Z,3.87
2018-03-15T00:52:57.886Z,3.88
2018-03-15T00:53:57.893Z,3.97
2018-03-15T00:54:57.877Z,3.98
2018-03-15T00:55:57.878Z,3.96
2018-03-15T00:56:57.885Z,3.94
2018-03-15T00:57:57.861Z,3.93
2018-03-15T00:58:57.878Z,3.91
2018-03-15T00:59:57.868Z,4.02
2018-03-15T01:00:57.935Z,3.96
2018-03-15T01:01:57.898Z,3.88
2018-03-15T01:02:57.916Z,3.90
2018-03-15T01:03:57.878Z,3.80
2018-03-15T01:04:57.851Z,3.96
2018-03-15T01:05:57.854Z,3.87
2018-03-15T01:06:57.841Z,3.83
2018-03-15T01:07:57.851Z,3.87
2018-03-15T01:08:57.843Z,3.83
2018-03-15T01:09:57.844Z,3.90
2018-03-15T01:10:57.837Z,3.83
2018-03-15T01:11:57.831Z,3.87
2018-03-15T01:12:57.841Z,3.87
2018-03-15T01:13:57.858Z,3.94
2018-03-15T01:14:57.836Z,3.86
2018-03-15T01:15:57.818Z,3.88
2018-03-15T01:16:57.846Z,3.84
2018-03-15T01:17:57.837Z,3.79
2018-03-15T01:18:57.840Z,3.79
2018-03-15T01:19:57.821Z,3.79
2018-03-15T01:20:57.811Z,3.84
2018-03-15T01:21:57.828Z,3.80
2018-03-15T01:22:57.841Z,3.83
2018-03-15T01:23:57.818Z,3.96
2018-03-15T01:24:57.805Z,3.88
2018-03-15T01:25:57.858Z,3.88
2018-03-15T01:26:57.794Z,3.88
2018-03-15T01:27:57.804Z,3.93
2018-03-15T01:28:57.833Z,3.84
2018-03-15T01:29:57.787Z,3.79
2018-03-15T01:30:57.799Z,3.87
2018-03-15T01:31:57.922Z,3.94
2018-03-15T01:32:57.790Z,3.79
2018-03-15T01:33:57.773Z,3.79
2018-03-15T01:34:57.791Z,3.73
2018-03-15T01:35:57.776Z,3.73
2018-03-15T01:36:57.774Z,3.83
2018-03-15T01:37:57.763Z,3.72
2018-03-15T01:38:57.762Z,3.83
2018-03-15T01:39:57.770Z,3.78
2018-03-15T01:40:57.793Z,3.83
2018-03-15T01:41:57.827Z,3.84
2018-03-15T01:42:57.787Z,3.76
2018-03-15T01:43:57.784Z,3.80
2018-03-15T01:44:58.625Z,3.86
2018-03-15T01:45:57.745Z,3.86
2018-03-15T01:46:57.750Z,3.94
2018-03-15T01:47:57.732Z,3.88
2018-03-15T01:48:57.764Z,3.88
2018-03-15T01:49:57.735Z,3.80
2018-03-15T01:50:57.742Z,3.84
2018-03-15T01:51:57.733Z,3.84
2018-03-15T01:52:57.741Z,3.80
2018-03-15T01:53:57.728Z,3.83
2018-03-15T01:54:57.841Z,3.79
2018-03-15T01:55:57.745Z,3.83
2018-03-15T01:56:57.731Z,3.79
2018-03-15T01:57:57.731Z,3.80
2018-03-15T01:58:57.727Z,3.87
2018-03-15T01:59:57.718Z,3.80
2018-03-15T02:00:57.724Z,3.79
2018-03-15T02:01:57.725Z,3.70
2018-03-15T02:02:57.708Z,3.69
2018-03-15T02:03:57.703Z,3.76
2018-03-15T02:04:57.692Z,3.70
2018-03-15T02:05:57.705Z,3.78
2018-03-15T02:06:57.723Z,3.72
2018-03-15T02:07:57.730Z,3.79
2018-03-15T02:08:57.689Z,3.78
2018-03-15T02:09:57.704Z,3.76
2018-03-15T02:10:57.707Z,3.87
2018-03-15T02:11:57.728Z,3.78
2018-03-15T02:12:57.679Z,3.76
2018-03-15T02:13:57.675Z,3.87
2018-03-15T02:14:57.671Z,3.79
2018-03-15T02:15:57.698Z,3.76
2018-03-15T02:16:57.675Z,3.78
2018-03-15T02:17:57.664Z,3.76
2018-03-15T02:18:57.661Z,3.73
2018-03-15T02:19:57.659Z,3.79
2018-03-15T02:20:58.126Z,3.75
2018-03-15T02:21:57.675Z,3.76
2018-03-15T02:22:57.647Z,3.78
2018-03-15T02:23:57.646Z,3.78
2018-03-15T02:24:57.666Z,3.73
2018-03-15T02:25:57.672Z,3.73
2018-03-15T02:26:57.654Z,3.79
2018-03-15T02:27:57.633Z,3.75
2018-03-15T02:28:57.655Z,3.70
2018-03-15T02:29:57.635Z,3.76
2018-03-15T02:30:57.632Z,3.76
2018-03-15T02:31:57.628Z,3.73
2018-03-15T02:32:57.630Z,3.78
2018-03-15T02:33:57.634Z,3.78
2018-03-15T02:34:57.616Z,3.78
2018-03-15T02:35:57.612Z,3.69
2018-03-15T02:36:57.606Z,3.84
2018-03-15T02:37:57.602Z,3.76
2018-03-15T02:38:57.613Z,3.78
2018-03-15T02:39:57.621Z,3.73
2018-03-15T02:40:57.611Z,3.79
2018-03-15T02:41:57.637Z,3.78
2018-03-15T02:42:57.625Z,3.66
2018-03-15T02:43:57.600Z,3.72
2018-03-15T02:44:57.595Z,3.73
2018-03-15T02:45:57.586Z,3.78
2018-03-15T02:46:57.584Z,3.73
2018-03-15T02:47:57.584Z,3.80
2018-03-15T02:48:58.141Z,3.80
2018-03-15T02:49:57.592Z,3.79
2018-03-15T02:50:57.573Z,3.76
2018-03-15T02:51:57.578Z,3.70
2018-03-15T02:52:57.601Z,3.66
2018-03-15T02:53:57.594Z,3.66
2018-03-15T02:54:57.588Z,3.68
2018-03-15T02:55:57.583Z,3.69
2018-03-15T02:56:57.600Z,3.72
2018-03-15T02:57:57.589Z,3.72
2018-03-15T02:58:57.560Z,3.76
2018-03-15T02:59:57.556Z,3.73
2018-03-15T03:00:57.584Z,3.76
2018-03-15T03:01:57.624Z,3.73
2018-03-15T03:02:57.560Z,3.79
2018-03-15T03:03:57.571Z,3.72
2018-03-15T03:04:57.607Z,3.70
2018-03-15T03:05:57.536Z,3.75
2018-03-15T03:06:57.549Z,3.66
2018-03-15T03:07:57.531Z,3.66
2018-03-15T03:08:57.573Z,3.66
2018-03-15T03:09:57.514Z,3.66
2018-03-15T03:10:57.547Z,3.65
2018-03-15T03:11:57.551Z,3.62
2018-03-15T03:12:57.530Z,3.62
2018-03-15T03:13:57.524Z,3.66
2018-03-15T03:14:57.592Z,3.62
2018-03-15T03:15:57.536Z,3.62
2018-03-15T03:16:57.504Z,3.62
2018-03-15T03:17:57.498Z,3.61
2018-03-15T03:18:57.498Z,3.70
2018-03-15T03:19:57.505Z,3.62
2018-03-15T03:20:57.505Z,3.70
2018-03-15T03:21:57.543Z,3.62
2018-03-15T03:22:57.498Z,3.65
2018-03-15T03:23:57.548Z,3.68
2018-03-15T03:24:57.498Z,3.62
2018-03-15T03:25:57.539Z,3.70
2018-03-15T03:26:57.476Z,3.66
2018-03-15T03:27:57.541Z,3.73
2018-03-15T03:28:57.467Z,3.68
2018-03-15T03:29:57.464Z,3.62
2018-03-15T03:30:57.475Z,3.69
2018-03-15T03:31:57.465Z,3.65
2018-03-15T03:32:57.468Z,3.62
2018-03-15T03:33:57.485Z,3.73
2018-03-15T03:34:57.464Z,3.57
2018-03-15T03:35:57.467Z,3.68
2018-03-15T03:36:57.485Z,3.69
2018-03-15T03:37:57.538Z,3.62
2018-03-15T03:38:57.457Z,3.66
2018-03-15T03:39:57.436Z,3.65
2018-03-15T03:40:57.448Z,3.62
2018-03-15T03:41:57.507Z,3.62
2018-03-15T03:42:57.430Z,3.66
2018-03-15T03:43:57.437Z,3.54
2018-03-15T03:44:57.437Z,3.60
2018-03-15T03:45:57.440Z,3.65
2018-03-15T03:46:57.462Z,3.61
2018-03-15T03:47:57.420Z,3.68
2018-03-15T03:48:57.421Z,3.66
2018-03-15T03:49:57.407Z,3.60
2018-03-15T03:50:57.417Z,3.61
2018-03-15T03:51:57.448Z,3.69
2018-03-15T03:52:57.414Z,3.60
2018-03-15T03:53:57.437Z,3.61
2018-03-15T03:54:57.396Z,3.65
2018-03-15T03:55:57.421Z,3.68
2018-03-15T03:56:57.409Z,3.61
2018-03-15T03:57:57.473Z,3.52
2018-03-15T03:58:57.417Z,3.65
2018-03-15T03:59:57.422Z,3.61
2018-03-15T04:00:57.384Z,3.62
2018-03-15T04:01:57.383Z,3.60
2018-03-15T04:02:57.371Z,3.68
2018-03-15T04:03:57.402Z,3.61
2018-03-15T04:04:57.386Z,3.50
2018-03-15T04:05:57.393Z,3.52
2018-03-15T04:06:57.381Z,3.62
2018-03-15T04:07:57.377Z,3.62
2018-03-15T04:08:57.429Z,3.61
2018-03-15T04:09:57.358Z,3.58
2018-03-15T04:10:57.354Z,3.68
2018-03-15T04:11:57.352Z,3.65
2018-03-15T04:12:57.362Z,3.69
2018-03-15T04:13:57.342Z,3.66
2018-03-15T04:14:57.399Z,3.68
2018-03-15T04:15:57.358Z,3.60
2018-03-15T04:16:57.345Z,3.68
2018-03-15T04:17:57.334Z,3.70
2018-03-15T04:18:57.373Z,3.66
2018-03-15T04:19:57.325Z,3.65
2018-03-15T04:20:57.319Z,3.60
2018-03-15T04:21:57.420Z,3.61
2018-03-15T04:22:57.331Z,3.69
2018-03-15T04:23:57.317Z,3.52
2018-03-15T04:24:57.341Z,3.66
2018-03-15T04:25:57.308Z,3.68
2018-03-15T04:26:57.304Z,3.68
2018-03-15T04:27:57.299Z,3.68
2018-03-15T04:28:57.304Z,3.65
2018-03-15T04:29:57.306Z,3.62
2018-03-15T04:30:57.299Z,3.62
2018-03-15T04:31:57.297Z,3.62
2018-03-15T04:32:57.290Z,3.69
2018-03-15T04:33:57.306Z,3.68
2018-03-15T04:34:57.290Z,3.65
2018-03-15T04:35:57.292Z,3.66
2018-03-15T04:36:57.288Z,3.65
2018-03-15T04:37:57.295Z,3.72
2018-03-15T04:38:57.269Z,3.57
2018-03-15T04:39:57.261Z,3.69
2018-03-15T04:40:57.259Z,3.61
2018-03-15T04:41:57.275Z,3.70
2018-03-15T04:42:57.265Z,3.62
2018-03-15T04:43:57.277Z,3.65
2018-03-15T04:44:58.150Z,3.61
2018-03-15T04:45:57.283Z,3.61
2018-03-15T04:46:57.258Z,3.62
2018-03-15T04:47:57.304Z,3.66
2018-03-15T04:48:57.296Z,3.69
2018-03-15T04:49:57.253Z,3.62
2018-03-15T04:50:57.237Z,3.61
2018-03-15T04:51:57.267Z,3.68
2018-03-15T04:52:57.289Z,3.69
2018-03-15T04:53:57.265Z,3.68
2018-03-15T04:54:57.235Z,3.72
2018-03-15T04:55:57.233Z,3.60
2018-03-15T04:56:57.219Z,3.62
2018-03-15T04:57:57.236Z,3.61
2018-03-15T04:58:57.218Z,3.79
2018-03-15T04:59:57.218Z,3.62
2018-03-15T05:00:57.201Z,3.62
2018-03-15T05:01:57.201Z,3.62
2018-03-15T05:02:57.209Z,3.65
2018-03-15T05:03:57.209Z,3.55
2018-03-15T05:04:57.193Z,3.61
2018-03-15T05:05:57.209Z,3.65
2018-03-15T05:06:57.189Z,3.52
2018-03-15T05:07:57.204Z,3.55
2018-03-15T05:08:57.196Z,3.61
2018-03-15T05:09:57.190Z,3.61
2018-03-15T05:10:57.221Z,3.66
2018-03-15T05:11:57.169Z,3.65
2018-03-15T05:12:57.217Z,3.65
2018-03-15T05:13:57.200Z,3.66
2018-03-15T05:14:57.167Z,3.62
2018-03-15T05:15:57.166Z,3.58
2018-03-15T05:16:57.162Z,3.62
2018-03-15T05:17:57.169Z,3.68
2018-03-15T05:18:57.215Z,3.52
2018-03-15T05:19:57.160Z,3.62
2018-03-15T05:20:57.164Z,3.65
2018-03-15T05:21:57.160Z,3.57
2018-03-15T05:22:57.150Z,3.62
2018-03-15T05:23:57.264Z,3.48
2018-03-15T05:24:57.180Z,3.60
2018-03-15T05:25:57.135Z,3.55
2018-03-15T05:26:57.125Z,3.52
2018-03-15T05:27:57.146Z,3.57
2018-03-15T05:28:57.122Z,3.60
2018-03-15T05:29:57.114Z,3.52
2018-03-15T05:30:57.132Z,3.61
2018-03-15T05:31:57.659Z,3.55
2018-03-15T05:32:57.150Z,3.60
2018-03-15T05:33:57.118Z,3.60
2018-03-15T05:34:57.119Z,3.61
2018-03-15T05:35:57.115Z,3.58
2018-03-15T05:36:57.106Z,3.65
2018-03-15T05:37:57.111Z,3.55
2018-03-15T05:38:57.090Z,3.62
2018-03-15T05:39:57.106Z,3.60
2018-03-15T05:40:57.116Z,3.51
2018-03-15T05:41:57.093Z,3.62
2018-03-15T05:42:57.083Z,3.57
2018-03-15T05:43:57.071Z,3.65
2018-03-15T05:44:57.122Z,3.66
2018-03-15T05:45:57.109Z,3.57
2018-03-15T05:46:57.064Z,3.52
2018-03-15T05:47:57.065Z,3.62
2018-03-15T05:48:57.081Z,3.61
2018-03-15T05:49:57.661Z,3.51
2018-03-15T05:50:57.083Z,3.68
2018-03-15T05:51:57.067Z,3.61
2018-03-15T05:52:57.055Z,3.66
2018-03-15T05:53:57.143Z,3.58
2018-03-15T05:54:57.105Z,3.58
2018-03-15T05:55:57.144Z,3.62
2018-03-15T05:56:57.095Z,3.62
2018-03-15T05:57:57.099Z,3.57
2018-03-15T05:58:57.103Z,3.62
2018-03-15T05:59:57.035Z,3.61
2018-03-15T06:00:57.118Z,3.57
2018-03-15T06:01:57.035Z,3.66
2018-03-15T06:02:57.183Z,3.66
2018-03-15T06:03:57.112Z,3.61
2018-03-15T06:04:57.086Z,3.69
2018-03-15T06:05:57.074Z,3.66
2018-03-15T06:06:57.032Z,3.65
2018-03-15T06:07:57.035Z,3.60
2018-03-15T06:08:57.054Z,3.68
2018-03-15T06:09:57.048Z,3.65
2018-03-15T06:10:57.004Z,3.61
2018-03-15T06:11:57.246Z,3.69
2018-03-15T06:12:57.229Z,3.69
2018-03-15T06:13:57.057Z,3.79
2018-03-15T06:14:57.029Z,3.68
2018-03-15T06:15:57.113Z,3.68
2018-03-15T06:16:57.029Z,3.75
2018-03-15T06:17:57.024Z,3.65
2018-03-15T06:18:57.068Z,3.73
2018-03-15T06:19:56.991Z,3.76
2018-03-15T06:20:56.971Z,3.76
2018-03-15T06:21:57.131Z,3.76
2018-03-15T06:22:57.206Z,3.80
2018-03-15T06:23:57.059Z,3.84
2018-03-15T06:24:57.109Z,3.84
2018-03-15T06:25:56.954Z,3.83
2018-03-15T06:26:57.014Z,3.78
2018-03-15T06:27:57.948Z,3.90
2018-03-15T06:28:57.122Z,3.94
2018-03-15T06:29:57.042Z,3.91
2018-03-15T06:30:57.184Z,3.87
2018-03-15T06:31:58.189Z,3.98
2018-03-15T06:32:57.183Z,3.98
2018-03-15T06:33:56.967Z,4.05
2018-03-15T06:34:57.011Z,3.98
2018-03-15T06:35:57.238Z,4.05
2018-03-15T06:36:57.250Z,4.05
2018-03-15T06:37:57.998Z,4.05
2018-03-15T06:38:58.714Z,4.06
2018-03-15T06:40:04.565Z,4.11
2018-03-15T06:40:57.230Z,4.11
2018-03-15T06:41:57.649Z,4.05
2018-03-15T06:42:57.228Z,4.18
2018-03-15T06:43:57.072Z,4.22
2018-03-15T06:44:57.212Z,4.16
2018-03-15T06:46:04.901Z,4.26
2018-03-15T06:46:56.997Z,4.22
2018-03-15T06:47:57.047Z,4.08
2018-03-15T06:48:56.936Z,4.14
2018-03-15T06:49:56.945Z,4.20
2018-03-15T06:50:56.910Z,4.33
2018-03-15T06:51:56.884Z,4.24
2018-03-15T06:52:56.889Z,4.33
2018-03-15T06:53:56.889Z,4.34
2018-03-15T06:54:57.148Z,4.41
2018-03-15T06:55:57.425Z,4.44
2018-03-15T06:56:57.439Z,4.47
2018-03-15T06:58:11.620Z,4.37
2018-03-15T06:58:58.346Z,4.55
2018-03-15T06:59:58.387Z,4.50
2018-03-15T07:01:57.390Z,4.59
2018-03-15T07:02:57.811Z,4.60
2018-03-15T07:03:57.187Z,4.52
2018-03-15T07:04:57.125Z,4.59
2018-03-15T07:05:56.920Z,4.51
2018-03-15T07:06:56.997Z,4.55
2018-03-15T07:07:56.876Z,4.66
2018-03-15T07:08:56.960Z,4.55
2018-03-15T07:09:56.911Z,4.70
2018-03-15T07:10:56.940Z,4.75
2018-03-15T07:11:56.880Z,4.88
2018-03-15T07:12:56.957Z,4.85
2018-03-15T07:13:56.963Z,4.94
2018-03-15T07:14:56.837Z,5.40
2018-03-15T07:15:56.898Z,6.17
2018-03-15T07:16:56.968Z,6.92
2018-03-15T07:17:56.947Z,7.45
2018-03-15T07:18:56.931Z,8.10
2018-03-15T07:19:56.998Z,8.28
2018-03-15T07:20:56.979Z,8.76
2018-03-15T07:21:57.109Z,8.94
2018-03-15T07:22:57.456Z,9.24
2018-03-15T07:23:57.036Z,9.42
2018-03-15T07:24:56.902Z,8.96
2018-03-15T07:25:56.995Z,8.19
2018-03-15T07:26:56.809Z,8.43
2018-03-15T07:27:56.972Z,8.96
2018-03-15T07:28:56.888Z,9.14
2018-03-15T07:29:56.855Z,9.02
2018-03-15T07:30:56.973Z,8.68
2018-03-15T07:31:56.908Z,8.98
2018-03-15T07:32:56.844Z,9.31
2018-03-15T07:33:56.936Z,9.54
2018-03-15T07:34:56.870Z,9.61
2018-03-15T07:35:57.043Z,9.04
2018-03-15T07:36:56.884Z,8.96
2018-03-15T07:37:56.909Z,9.10
2018-03-15T07:38:57.023Z,9.33
2018-03-15T07:39:57.213Z,10.20
2018-03-15T07:40:57.898Z,11.09
2018-03-15T07:41:57.353Z,11.07
2018-03-15T07:42:56.979Z,10.04
2018-03-15T07:43:56.889Z,9.61
2018-03-15T07:44:56.869Z,9.94
2018-03-15T07:45:56.978Z,9.87
2018-03-15T07:46:56.846Z,10.33
2018-03-15T07:47:56.995Z,10.01
2018-03-15T07:48:56.926Z,10.38
2018-03-15T07:49:56.887Z,9.97
2018-03-15T07:50:57.931Z,10.18
2018-03-15T07:51:57.060Z,10.68
2018-03-15T07:52:56.917Z,10.88
2018-03-15T07:53:56.972Z,10.78
2018-03-15T07:54:56.882Z,11.52
2018-03-15T07:55:56.902Z,11.52
2018-03-15T07:56:57.124Z,11.39
2018-03-15T07:57:56.903Z,9.89
2018-03-15T07:58:58.452Z,9.74
2018-03-15T07:59:58.291Z,10.18
2018-03-15T08:00:58.688Z,10.82
2018-03-15T08:01:57.117Z,10.26
2018-03-15T08:02:56.946Z,10.59
2018-03-15T08:03:56.990Z,11.19
2018-03-15T08:04:56.961Z,11.03
2018-03-15T08:05:57.128Z,11.91
2018-03-15T08:06:59.826Z,12.31
2018-03-15T08:07:57.044Z,12.97
2018-03-15T08:08:56.911Z,11.83
2018-03-15T08:09:57.061Z,11.85
2018-03-15T08:10:57.110Z,11.80
2018-03-15T08:11:58.240Z,11.00
2018-03-15T08:12:58.019Z,10.91
2018-03-15T08:13:57.020Z,10.68
2018-03-15T08:14:57.104Z,10.73
2018-03-15T08:15:57.081Z,9.97
2018-03-15T08:16:57.684Z,10.78
2018-03-15T08:19:00.320Z,10.99
2018-03-15T08:19:57.607Z,10.67
2018-03-15T08:20:57.981Z,10.53
2018-03-15T08:22:57.213Z,10.76
2018-03-15T08:24:03.968Z,11.61
2018-03-15T08:24:57.472Z,11.49
2018-03-15T08:29:21.765Z,11.95
2018-03-15T08:30:59.887Z,11.21
2018-03-15T08:31:58.660Z,10.88
2018-03-15T08:32:57.955Z,10.51
2018-03-15T08:33:57.890Z,10.53
2018-03-15T08:34:57.162Z,11.47
2018-03-15T08:35:57.056Z,11.03
2018-03-15T08:36:57.182Z,12.57
2018-03-15T08:37:58.390Z,11.57
2018-03-15T08:38:57.332Z,10.73
2018-03-15T08:39:57.305Z,10.18
2018-03-15T08:40:57.171Z,10.61
2018-03-15T08:41:57.008Z,12.17
2018-03-15T08:42:57.043Z,12.12
2018-03-15T08:43:57.081Z,12.20
2018-03-15T08:44:57.901Z,12.39
2018-03-15T08:45:57.147Z,12.19
2018-03-15T08:46:57.154Z,11.86
2018-03-15T08:47:57.205Z,11.79
2018-03-15T08:48:57.507Z,10.85
2018-03-15T08:49:57.129Z,11.17
2018-03-15T08:50:57.595Z,11.78
2018-03-15T08:51:57.231Z,11.69
2018-03-15T08:52:57.237Z,12.95
2018-03-15T08:53:57.180Z,13.48
2018-03-15T08:54:57.342Z,12.96
2018-03-15T08:55:57.121Z,12.87
2018-03-15T08:56:57.245Z,13.00
2018-03-15T08:57:57.096Z,12.74
2018-03-15T08:58:57.356Z,12.77
2018-03-15T08:59:57.399Z,13.04
2018-03-15T09:00:57.208Z,13.01
2018-03-15T09:01:57.430Z,11.86
2018-03-15T09:02:57.903Z,12.75
2018-03-15T09:03:59.913Z,12.10
2018-03-15T09:04:59.082Z,11.90
2018-03-15T09:05:57.645Z,11.46
2018-03-15T09:06:57.261Z,11.88
2018-03-15T09:07:57.362Z,11.58
2018-03-15T09:08:57.335Z,11.78
2018-03-15T09:09:57.210Z,11.61
2018-03-15T09:10:57.272Z,11.95
2018-03-15T09:11:58.140Z,12.38
2018-03-15T09:12:57.224Z,11.55
2018-03-15T09:13:57.378Z,11.72
2018-03-15T09:14:57.450Z,11.88
2018-03-15T09:15:57.299Z,12.35
2018-03-15T09:16:57.375Z,12.45
2018-03-15T09:17:57.316Z,11.75
2018-03-15T09:18:57.249Z,12.31
2018-03-15T09:19:57.529Z,12.28
2018-03-15T09:20:57.273Z,12.29
2018-03-15T09:21:57.262Z,12.12
2018-03-15T09:22:57.234Z,11.96
2018-03-15T09:23:57.316Z,12.42
2018-03-15T09:24:57.289Z,12.89
2018-03-15T09:25:57.386Z,12.34
2018-03-15T09:26:57.503Z,12.05
2018-03-15T09:27:58.201Z,12.67
2018-03-15T09:28:58.308Z,13.71
2018-03-15T09:29:57.331Z,13.03
2018-03-15T09:30:58.137Z,11.86
2018-03-15T09:31:57.533Z,11.90
2018-03-15T09:32:57.822Z,12.07
2018-03-15T09:33:58.861Z,12.72
2018-03-15T09:34:57.737Z,12.87
2018-03-15T09:35:58.174Z,13.70
2018-03-15T09:36:58.157Z,13.57
2018-03-15T09:37:57.437Z,13.28
2018-03-15T09:38:59.770Z,13.46
2018-03-15T09:39:58.427Z,12.87
2018-03-15T09:40:57.575Z,12.35
2018-03-15T09:41:57.749Z,13.07
2018-03-15T09:42:57.926Z,13.92
2018-03-15T09:43:57.924Z,12.74
2018-03-15T09:44:57.608Z,12.04
2018-03-15T09:45:57.615Z,12.29
2018-03-15T09:46:59.988Z,12.34
2018-03-15T09:48:16.619Z,13.52
2018-03-15T09:50:30.912Z,13.89
2018-03-15T09:51:30.906Z,14.98
2018-03-15T09:52:30.960Z,15.20
2018-03-15T09:53:31.033Z,14.14
2018-03-15T09:54:31.294Z,14.06
2018-03-15T09:55:30.910Z,12.90
2018-03-15T09:56:31.418Z,13.00
2018-03-15T09:57:30.947Z,13.19
2018-03-15T09:58:31.017Z,13.12
2018-03-15T09:59:31.062Z,14.25
2018-03-15T10:00:30.993Z,14.81
2018-03-15T10:01:31.008Z,13.04
2018-03-15T10:02:30.972Z,12.45
2018-03-15T10:03:31.025Z,12.37
2018-03-15T10:04:31.043Z,13.07
2018-03-15T10:05:30.994Z,12.78
2018-03-15T10:06:31.002Z,13.05
2018-03-15T10:07:31.005Z,13.03
2018-03-15T10:08:31.964Z,12.68
2018-03-15T10:09:31.024Z,13.05
2018-03-15T10:10:31.068Z,12.46
2018-03-15T10:11:31.057Z,12.71
2018-03-15T10:12:31.061Z,13.23
2018-03-15T10:13:31.103Z,12.23
2018-03-15T10:14:31.092Z,12.47
2018-03-15T10:15:31.065Z,12.21
2018-03-15T10:16:31.101Z,12.90
2018-03-15T10:17:31.121Z,12.29
2018-03-15T10:18:31.235Z,12.31
2018-03-15T10:19:31.104Z,12.10
2018-03-15T10:20:31.142Z,12.54
2018-03-15T10:21:31.131Z,12.74
2018-03-15T10:22:31.138Z,13.07
2018-03-15T10:23:31.127Z,13.22
2018-03-15T10:24:31.145Z,13.08
2018-03-15T10:25:31.209Z,13.05
2018-03-15T10:26:31.143Z,13.20
2018-03-15T10:27:31.239Z,13.17
2018-03-15T10:28:31.156Z,13.32
2018-03-15T10:29:31.210Z,13.60
2018-03-15T10:30:31.174Z,13.92
2018-03-15T10:31:31.377Z,14.00
2018-03-15T10:32:31.235Z,13.29
2018-03-15T10:33:31.248Z,12.83
2018-03-15T10:34:31.204Z,12.53
2018-03-15T10:35:31.233Z,13.26
2018-03-15T10:36:31.321Z,13.07
2018-03-15T10:37:31.253Z,13.66
2018-03-15T10:38:31.274Z,14.61
2018-03-15T10:39:31.274Z,14.12
2018-03-15T10:40:31.248Z,14.04
2018-03-15T10:41:31.292Z,14.03
2018-03-15T10:42:31.299Z,13.46
2018-03-15T10:43:31.373Z,13.00
2018-03-15T10:44:31.289Z,12.56
2018-03-15T10:45:31.294Z,13.57
2018-03-15T10:46:31.547Z,13.62
2018-03-15T10:47:31.316Z,13.73
2018-03-15T10:48:31.319Z,13.32
2018-03-15T10:49:31.444Z,14.02
2018-03-15T10:50:31.367Z,13.01
2018-03-15T10:51:31.348Z,13.42
2018-03-15T10:52:31.360Z,13.84
2018-03-15T10:53:31.404Z,13.26
2018-03-15T10:54:31.371Z,13.48
2018-03-15T10:55:31.377Z,13.54
2018-03-15T10:56:31.394Z,13.49
2018-03-15T10:57:31.398Z,13.78
2018-03-15T10:58:31.416Z,14.04
2018-03-15T10:59:31.995Z,13.75
2018-03-15T11:00:31.421Z,13.52
2018-03-15T11:01:31.474Z,13.49
2018-03-15T11:02:31.481Z,12.37
2018-03-15T11:03:31.463Z,12.35
2018-03-15T11:04:31.494Z,12.97
2018-03-15T11:05:31.471Z,13.77
2018-03-15T11:06:32.495Z,13.44
2018-03-15T11:07:31.506Z,13.19
2018-03-15T11:08:32.021Z,13.04
2018-03-15T11:09:31.607Z,13.07
2018-03-15T11:10:31.502Z,13.15
2018-03-15T11:11:31.511Z,13.85
2018-03-15T11:12:31.554Z,13.69
2018-03-15T11:13:31.595Z,13.49
2018-03-15T11:14:31.537Z,13.71
2018-03-15T11:15:31.544Z,12.82
2018-03-15T11:16:31.579Z,12.75
2018-03-15T11:17:31.582Z,12.17
2018-03-15T11:18:31.594Z,12.12
2018-03-15T11:19:31.700Z,11.95
2018-03-15T11:20:31.586Z,12.17
2018-03-15T11:21:31.628Z,12.32
2018-03-15T11:22:31.622Z,12.09
2018-03-15T11:23:31.631Z,12.23
2018-03-15T11:24:31.669Z,12.67
2018-03-15T11:25:31.672Z,12.65
2018-03-15T11:26:31.635Z,11.90
2018-03-15T11:27:31.650Z,12.28
2018-03-15T11:28:31.673Z,12.01
2018-03-15T11:29:31.650Z,11.96
2018-03-15T11:30:31.655Z,12.41
2018-03-15T11:31:31.694Z,13.07
2018-03-15T11:32:31.685Z,12.78
2018-03-15T11:33:31.721Z,13.12
2018-03-15T11:34:31.704Z,13.55
2018-03-15T11:35:31.756Z,13.82
2018-03-15T11:36:31.697Z,13.62
2018-03-15T11:37:31.775Z,13.19
2018-03-15T11:38:31.757Z,13.03
2018-03-15T11:39:31.730Z,13.15
2018-03-15T11:40:31.746Z,13.32
2018-03-15T11:41:31.723Z,12.23
2018-03-15T11:42:31.756Z,12.32
2018-03-15T11:43:31.762Z,12.27
2018-03-15T11:44:31.800Z,12.71
2018-03-15T11:45:31.769Z,12.70
2018-03-15T11:46:31.762Z,12.85
2018-03-15T11:47:31.755Z,12.35
2018-03-15T11:48:31.797Z,12.21
2018-03-15T11:49:31.791Z,12.64
2018-03-15T11:50:31.794Z,12.01
2018-03-15T11:51:31.822Z,11.85
2018-03-15T11:52:31.842Z,11.99
2018-03-15T11:53:31.798Z,11.99
2018-03-15T11:54:31.801Z,11.88
2018-03-15T11:55:31.850Z,11.90
2018-03-15T11:56:31.831Z,11.82
2018-03-15T11:57:31.809Z,11.83
2018-03-15T11:58:31.852Z,11.94
2018-03-15T11:59:31.860Z,11.91
2018-03-15T12:00:31.844Z,12.04
2018-03-15T12:01:31.862Z,11.96
2018-03-15T12:02:31.881Z,11.85
2018-03-15T12:03:31.904Z,12.09
2018-03-15T12:04:31.835Z,12.09
2018-03-15T12:05:31.838Z,12.01
2018-03-15T12:06:31.882Z,11.99
2018-03-15T12:07:31.843Z,12.05
2018-03-15T12:08:31.858Z,11.79
2018-03-15T12:09:31.859Z,11.57
2018-03-15T12:10:31.861Z,11.90
2018-03-15T12:11:31.887Z,11.83
2018-03-15T12:12:31.857Z,11.70
2018-03-15T12:13:31.871Z,12.13
2018-03-15T12:14:31.858Z,11.70
2018-03-15T12:15:31.863Z,11.51
2018-03-15T12:16:31.877Z,11.49
2018-03-15T12:17:31.874Z,11.51
2018-03-15T12:18:31.999Z,11.32
2018-03-15T12:19:31.884Z,11.25
2018-03-15T12:20:31.887Z,11.17
2018-03-15T12:21:31.898Z,11.43
2018-03-15T12:22:31.919Z,11.43
2018-03-15T12:23:31.903Z,11.40
2018-03-15T12:24:31.898Z,11.64
2018-03-15T12:25:31.886Z,11.37
2018-03-15T12:26:31.948Z,11.54
2018-03-15T12:27:31.898Z,11.61
2018-03-15T12:28:31.920Z,11.85
2018-03-15T12:29:31.958Z,11.95
2018-03-15T12:30:31.912Z,11.98
2018-03-15T12:31:31.964Z,11.95
2018-03-15T12:32:31.915Z,11.95
2018-03-15T12:33:31.920Z,12.37
2018-03-15T12:34:32.538Z,12.27
2018-03-15T12:35:31.913Z,12.32
2018-03-15T12:36:32.531Z,12.60
2018-03-15T12:37:31.956Z,12.42
2018-03-15T12:38:31.925Z,12.05
2018-03-15T12:39:31.932Z,11.78
2018-03-15T12:40:31.978Z,11.78
2018-03-15T12:41:31.949Z,12.19
2018-03-15T12:42:31.983Z,12.17
2018-03-15T12:43:31.986Z,12.24
2018-03-15T12:44:31.942Z,12.23
2018-03-15T12:45:31.944Z,12.14
2018-03-15T12:46:31.987Z,12.19
2018-03-15T12:47:32.065Z,11.85
2018-03-15T12:48:31.991Z,12.14
2018-03-15T12:49:31.976Z,11.99
2018-03-15T12:50:31.963Z,11.91
2018-03-15T12:51:31.974Z,12.04
2018-03-15T12:52:31.998Z,11.95
2018-03-15T12:53:31.971Z,12.05
2018-03-15T12:54:32.000Z,12.27
2018-03-15T12:55:32.539Z,12.56
2018-03-15T12:56:31.967Z,12.39
2018-03-15T12:57:32.029Z,12.29
2018-03-15T12:58:31.966Z,12.34
2018-03-15T12:59:31.984Z,12.41
2018-03-15T13:00:32.030Z,12.46
2018-03-15T13:01:31.976Z,12.21
2018-03-15T13:02:31.983Z,12.37
2018-03-15T13:03:32.023Z,12.39
2018-03-15T13:04:31.984Z,12.31
2018-03-15T13:05:33.040Z,12.27
2018-03-15T13:06:31.989Z,12.27
2018-03-15T13:07:32.003Z,12.12
2018-03-15T13:08:32.032Z,12.39
2018-03-15T13:09:32.011Z,12.24
2018-03-15T13:10:32.063Z,12.09
2018-03-15T13:11:32.025Z,12.10
2018-03-15T13:12:32.156Z,12.23
2018-03-15T13:13:32.009Z,12.14
2018-03-15T13:14:32.018Z,12.01
2018-03-15T13:15:32.045Z,12.02
2018-03-15T13:16:32.019Z,11.94